Time;durP1;ratioP1;P1;durP2;ratioP2;P2;SDS_P1;SDS_P2;PMS_P1;PMS_P2;Temp;Humidity;BMP_temperature;BMP_pressure;BME280_temperature;BME280_humidity;BME280_pressure;Samples;Min_cycle;Max_cycle;Signal;HPM_P1;HPM_P2
2023/09/08 00:02:04;;;;;;;2.67;1.90;;;20.20;99.90;;;;;;5085759;28;20120;-76
2023/09/08 00:04:32;;;;;;;2.45;1.70;;;20.10;99.90;;;;;;5086984;28;20040;-75
2023/09/08 00:06:59;;;;;;;1.83;1.52;;;20.10;1.00;;;;;;5088001;28;20050;-75
2023/09/08 00:09:27;;;;;;;2.08;1.80;;;20.00;1.00;;;;;;5069662;28;20056;-76
2023/09/08 00:11:56;;;;;;;2.28;1.70;;;20.00;99.90;;;;;;5067825;28;20076;-76
2023/09/08 00:14:23;;;;;;;2.10;1.67;;;20.00;99.90;;;;;;5083662;28;20059;-75
2023/09/08 00:16:55;;;;;;;2.63;1.80;;;19.90;99.90;;;;;;5086960;28;20089;-76
2023/09/08 00:19:23;;;;;;;2.10;1.67;;;19.90;1.00;;;;;;5083343;28;20044;-75
2023/09/08 00:21:50;;;;;;;2.10;1.70;;;19.90;99.90;;;;;;5085670;28;20455;-75
2023/09/08 00:24:17;;;;;;;1.88;1.55;;;19.90;1.00;;;;;;5085607;28;20048;-75
2023/09/08 00:26:44;;;;;;;2.13;1.73;;;19.80;1.00;;;;;;5068503;28;20044;-76
2023/09/08 00:29:11;;;;;;;1.98;1.40;;;19.80;1.00;;;;;;5067900;28;20053;-76
2023/09/08 00:31:38;;;;;;;2.00;1.60;;;19.70;1.00;;;;;;5086380;28;20180;-76
2023/09/08 00:34:06;;;;;;;1.88;1.50;;;19.70;1.00;;;;;;5086845;28;20058;-76
2023/09/08 00:36:33;;;;;;;1.42;1.25;;;19.70;1.00;;;;;;5085267;28;20051;-75
2023/09/08 00:39:00;;;;;;;1.42;1.15;;;19.70;1.00;;;;;;5051908;28;20558;-76
2023/09/08 00:41:27;;;;;;;2.38;1.42;;;19.70;1.00;;;;;;5085392;28;20048;-76
2023/09/08 00:43:54;;;;;;;2.30;1.70;;;19.70;99.90;;;;;;5085225;28;20487;-75
2023/09/08 00:46:20;;;;;;;1.70;1.30;;;19.60;99.90;;;;;;5067920;28;20633;-76
2023/09/08 00:48:47;;;;;;;2.58;2.03;;;19.70;99.90;;;;;;5085368;28;20044;-75
2023/09/08 00:51:42;;;;;;;2.22;1.60;;;19.70;99.90;;;;;;5086928;28;20048;-75
2023/09/08 00:54:19;;;;;;;2.30;2.10;;;19.60;99.90;;;;;;5085072;28;20135;-75
2023/09/08 00:56:46;;;;;;;2.00;1.67;;;19.70;99.90;;;;;;5084906;28;20044;-77
2023/09/08 00:59:13;;;;;;;2.03;1.65;;;19.60;99.90;;;;;;5083990;28;20044;-77
2023/09/08 01:01:40;;;;;;;2.22;1.60;;;19.60;99.90;;;;;;5084837;28;20047;-75
2023/09/08 01:04:07;;;;;;;2.20;1.75;;;19.60;99.90;;;;;;5064770;28;20051;-77
2023/09/08 01:06:34;;;;;;;2.45;1.65;;;19.60;99.90;;;;;;5082078;28;20076;-75
2023/09/08 01:09:02;;;;;;;2.03;1.60;;;19.60;99.90;;;;;;5082084;28;20044;-75
2023/09/08 01:11:30;;;;;;;2.08;1.60;;;19.60;99.90;;;;;;5084494;28;20129;-77
2023/09/08 01:13:57;;;;;;;2.20;1.80;;;19.60;99.90;;;;;;5083151;28;20051;-77
2023/09/08 01:16:23;;;;;;;1.88;1.40;;;19.50;99.90;;;;;;5085982;28;20130;-77
2023/09/08 01:18:50;;;;;;;2.00;1.50;;;19.50;99.90;;;;;;5085931;28;20060;-77
2023/09/08 01:21:59;;;;;;;2.20;1.65;;;19.60;99.90;;;;;;5087074;28;20175;-77
2023/09/08 01:24:58;;;;;;;2.42;1.80;;;19.60;99.90;;;;;;5080968;28;20062;-75
2023/09/08 01:27:25;;;;;;;1.85;1.38;;;19.50;99.90;;;;;;5076110;28;20048;-77
2023/09/08 01:29:52;;;;;;;1.83;1.55;;;19.50;99.90;;;;;;5066804;28;20044;-77
2023/09/08 01:32:19;;;;;;;2.10;1.70;;;19.40;99.90;;;;;;5065519;28;20132;-74
2023/09/08 01:34:45;;;;;;;2.20;1.42;;;19.40;99.90;;;;;;5081927;28;20585;-75
2023/09/08 01:37:12;;;;;;;2.33;1.40;;;19.40;99.90;;;;;;5083740;28;20060;-74
2023/09/08 01:39:39;;;;;;;1.80;1.40;;;19.40;99.90;;;;;;5085127;28;20044;-75
2023/09/08 01:42:06;;;;;;;2.17;1.75;;;19.30;99.90;;;;;;5085989;28;20048;-74
2023/09/08 01:44:32;;;;;;;2.35;1.58;;;19.40;99.90;;;;;;5084401;28;20136;-75
2023/09/08 01:46:59;;;;;;;2.05;1.60;;;19.30;99.90;;;;;;5065000;28;20105;-75
2023/09/08 01:49:26;;;;;;;1.88;1.50;;;19.40;99.90;;;;;;5084866;28;20079;-74
2023/09/08 01:51:53;;;;;;;1.63;1.33;;;19.40;99.90;;;;;;5064847;28;20544;-77
2023/09/08 01:54:20;;;;;;;1.83;1.30;;;19.40;99.90;;;;;;5085210;28;20066;-77
2023/09/08 01:56:46;;;;;;;1.83;1.35;;;19.30;99.90;;;;;;5085754;28;20472;-77
2023/09/08 01:59:13;;;;;;;2.08;1.27;;;19.30;99.90;;;;;;5083150;28;20059;-77
2023/09/08 02:01:40;;;;;;;1.48;1.20;;;19.30;99.90;;;;;;5067369;28;20044;-77
2023/09/08 02:04:07;;;;;;;1.80;1.30;;;19.30;1.00;;;;;;5085393;28;20503;-76
2023/09/08 02:06:34;;;;;;;1.15;1.00;;;19.30;1.00;;;;;;5083801;28;20071;-77
2023/09/08 02:09:00;;;;;;;1.80;1.35;;;19.30;1.00;;;;;;5081885;28;20097;-77
2023/09/08 02:11:27;;;;;;;1.25;1.08;;;19.30;99.90;;;;;;5079983;28;20658;-78
2023/09/08 02:13:54;;;;;;;1.50;1.40;;;19.40;99.90;;;;;;5082496;28;20048;-77
2023/09/08 02:16:24;;;;;;;1.42;1.27;;;19.30;99.90;;;;;;5084095;28;20075;-77
2023/09/08 02:18:51;;;;;;;1.88;1.30;;;19.30;1.00;;;;;;5085273;28;20071;-77
2023/09/08 02:21:18;;;;;;;1.17;1.05;;;19.30;1.00;;;;;;5086023;28;20040;-77
2023/09/08 02:23:45;;;;;;;1.63;1.42;;;19.30;7.90;;;;;;5083139;28;20124;-77
2023/09/08 02:26:11;;;;;;;1.20;1.00;;;19.30;18.00;;;;;;5083659;28;20132;-75
2023/09/08 02:28:38;;;;;;;1.25;1.10;;;19.30;51.80;;;;;;5082942;28;20105;-75
2023/09/08 02:31:05;;;;;;;1.50;1.10;;;19.30;24.90;;;;;;5080109;28;20040;-75
2023/09/08 02:33:32;;;;;;;1.65;1.40;;;19.30;35.90;;;;;;5084622;28;20616;-76
2023/09/08 02:36:07;;;;;;;1.00;0.88;;;19.30;62.40;;;;;;5085223;28;20052;-77
2023/09/08 02:38:34;;;;;;;1.63;1.27;;;19.20;82.20;;;;;;5084546;28;20127;-76
2023/09/08 02:41:01;;;;;;;1.50;1.10;;;19.30;76.20;;;;;;5084946;28;20048;-76
2023/09/08 02:43:28;;;;;;;1.80;1.50;;;19.30;22.00;;;;;;5079504;28;20055;-76
2023/09/08 02:45:56;;;;;;;1.60;1.30;;;19.30;43.40;;;;;;5066712;28;20044;-76
2023/09/08 02:48:24;;;;;;;1.27;1.13;;;19.30;4.80;;;;;;5065323;28;20044;-76
2023/09/08 02:50:51;;;;;;;1.85;1.30;;;19.30;68.10;;;;;;5067295;28;20051;-76
2023/09/08 02:53:17;;;;;;;1.58;1.30;;;19.30;1.00;;;;;;5079941;28;20147;-76
2023/09/08 02:55:45;;;;;;;2.10;1.50;;;19.20;21.40;;;;;;5083674;28;20108;-76
2023/09/08 02:58:12;;;;;;;1.38;1.17;;;19.10;65.20;;;;;;5082243;28;20060;-77
2023/09/08 03:00:39;;;;;;;1.75;1.30;;;19.10;99.90;;;;;;5085149;28;20051;-75
2023/09/08 03:03:06;;;;;;;1.70;1.42;;;19.20;99.90;;;;;;5084453;28;20091;-76
2023/09/08 03:05:33;;;;;;;2.83;1.40;;;19.10;99.90;;;;;;5084857;28;20116;-76
2023/09/08 03:08:00;;;;;;;1.33;1.10;;;19.20;99.90;;;;;;5082430;28;20093;-76
2023/09/08 03:10:28;;;;;;;1.27;1.17;;;19.20;99.90;;;;;;5083678;28;20593;-76
2023/09/08 03:12:55;;;;;;;2.00;1.55;;;19.20;99.90;;;;;;5066417;28;20146;-76
2023/09/08 03:15:22;;;;;;;1.90;1.40;;;19.10;99.90;;;;;;5065400;28;20078;-76
2023/09/08 03:17:48;;;;;;;1.90;1.42;;;19.10;99.90;;;;;;5084680;28;20527;-76
2023/09/08 03:20:15;;;;;;;1.38;1.20;;;19.00;99.90;;;;;;5082832;28;20143;-76
2023/09/08 03:22:42;;;;;;;1.80;1.50;;;19.00;99.90;;;;;;5049705;28;20048;-76
2023/09/08 03:25:09;;;;;;;1.48;1.33;;;19.00;99.90;;;;;;5066133;28;20036;-76
2023/09/08 03:27:36;;;;;;;2.35;1.42;;;18.90;99.90;;;;;;5083038;28;20177;-76
2023/09/08 03:30:04;;;;;;;1.77;1.48;;;19.00;1.00;;;;;;5082976;28;20121;-75
2023/09/08 03:32:31;;;;;;;2.33;1.65;;;19.00;1.00;;;;;;5084212;28;20123;-76
2023/09/08 03:34:58;;;;;;;2.30;1.60;;;18.90;1.00;;;;;;5082585;28;20063;-75
2023/09/08 03:37:26;;;;;;;1.25;1.00;;;18.90;1.00;;;;;;5083291;28;20219;-75
2023/09/08 03:39:53;;;;;;;2.67;1.50;;;18.90;1.00;;;;;;5083868;28;20494;-74
2023/09/08 03:42:20;;;;;;;2.47;1.83;;;18.90;99.90;;;;;;5066251;28;20141;-76
2023/09/08 03:44:46;;;;;;;1.98;1.40;;;18.90;99.90;;;;;;5081615;28;20047;-76
2023/09/08 03:47:13;;;;;;;1.33;1.15;;;18.90;99.90;;;;;;5082935;28;20044;-75
2023/09/08 03:49:40;;;;;;;1.40;1.20;;;18.80;99.90;;;;;;5082994;28;20072;-75
2023/09/08 03:52:06;;;;;;;1.75;1.45;;;18.80;99.90;;;;;;5084352;28;20378;-75
2023/09/08 03:54:33;;;;;;;1.75;1.55;;;18.80;99.90;;;;;;5066345;28;20068;-75
2023/09/08 03:57:00;;;;;;;1.63;1.40;;;18.80;99.90;;;;;;5084181;28;20040;-76
2023/09/08 03:59:27;;;;;;;1.48;1.35;;;18.80;99.90;;;;;;5083670;28;20062;-75
2023/09/08 04:01:54;;;;;;;2.00;1.40;;;18.80;99.90;;;;;;5087921;28;20079;-75
2023/09/08 04:04:22;;;;;;;1.70;1.20;;;18.80;99.90;;;;;;5053197;28;20737;-74
2023/09/08 04:06:48;;;;;;;1.65;1.20;;;18.90;99.90;;;;;;5085328;28;20072;-75
2023/09/08 04:09:15;;;;;;;1.17;1.05;;;18.90;99.90;;;;;;5080745;28;20048;-75
2023/09/08 04:11:42;;;;;;;1.30;1.20;;;18.80;99.90;;;;;;5069648;28;20123;-75
2023/09/08 04:14:09;;;;;;;0.93;0.82;;;18.80;99.90;;;;;;5084853;28;20074;-76
2023/09/08 04:16:36;;;;;;;1.35;1.15;;;18.80;99.90;;;;;;5085709;28;20044;-75
2023/09/08 04:19:03;;;;;;;1.83;1.45;;;18.80;99.90;;;;;;5103481;28;20395;-75
2023/09/08 04:21:29;;;;;;;1.20;1.10;;;18.70;99.90;;;;;;5087649;28;20052;-75
2023/09/08 04:23:56;;;;;;;1.55;1.20;;;18.80;99.90;;;;;;5086820;28;20117;-76
2023/09/08 04:26:23;;;;;;;1.73;1.25;;;18.70;99.90;;;;;;5086436;28;20070;-75
2023/09/08 04:28:50;;;;;;;1.80;1.23;;;18.70;99.90;;;;;;5086125;28;20040;-76
2023/09/08 04:31:18;;;;;;;1.30;1.17;;;18.70;99.90;;;;;;5085915;28;20652;-76
2023/09/08 04:33:44;;;;;;;1.73;1.50;;;18.70;99.90;;;;;;5087896;28;20044;-76
2023/09/08 04:36:13;;;;;;;1.65;1.27;;;18.70;1.00;;;;;;5070874;28;20054;-76
2023/09/08 04:38:41;;;;;;;1.83;1.25;;;18.80;1.00;;;;;;5080940;28;20397;-75
2023/09/08 04:41:08;;;;;;;1.27;1.08;;;18.80;1.00;;;;;;5076914;28;20135;-76
2023/09/08 04:43:35;;;;;;;1.42;1.20;;;18.80;1.00;;;;;;5086127;28;20060;-76
2023/09/08 04:46:03;;;;;;;1.60;1.15;;;18.80;1.00;;;;;;5076305;28;20071;-76
2023/09/08 04:48:30;;;;;;;1.75;1.20;;;18.70;1.00;;;;;;5074233;28;20130;-75
2023/09/08 04:50:57;;;;;;;2.58;1.40;;;18.60;1.00;;;;;;5081936;28;20044;-75
2023/09/08 04:53:24;;;;;;;1.20;1.10;;;18.60;1.00;;;;;;5065923;28;20097;-75
2023/09/08 04:55:51;;;;;;;1.83;1.38;;;18.60;1.00;;;;;;5085986;28;20126;-75
2023/09/08 04:58:18;;;;;;;1.75;1.42;;;18.60;1.00;;;;;;5084615;28;20052;-74
2023/09/08 05:00:45;;;;;;;1.42;1.08;;;18.70;55.50;;;;;;5086404;28;20624;-76
2023/09/08 05:03:11;;;;;;;0.95;0.80;;;18.70;86.60;;;;;;5062488;28;20062;-75
2023/09/08 05:05:39;;;;;;;1.02;0.80;;;18.70;70.70;;;;;;5063610;28;20044;-75
2023/09/08 05:08:06;;;;;;;1.50;1.10;;;18.70;62.50;;;;;;5082822;28;20071;-75
2023/09/08 05:10:32;;;;;;;2.03;1.27;;;18.70;75.30;;;;;;5085232;28;20040;-76
2023/09/08 05:12:59;;;;;;;1.13;0.88;;;18.70;74.70;;;;;;5082105;28;20136;-76
2023/09/08 05:15:26;;;;;;;1.15;1.05;;;18.70;39.40;;;;;;5083256;28;20051;-76
2023/09/08 05:17:53;;;;;;;1.63;1.17;;;18.70;48.00;;;;;;5081128;28;20123;-76
2023/09/08 05:20:20;;;;;;;1.30;1.10;;;18.70;28.20;;;;;;5048850;28;20762;-77
2023/09/08 05:22:47;;;;;;;1.30;1.00;;;18.70;45.70;;;;;;5081917;28;20093;-76
2023/09/08 05:25:14;;;;;;;1.15;0.90;;;18.70;42.00;;;;;;5082164;28;20143;-77
2023/09/08 05:27:40;;;;;;;1.10;1.00;;;18.60;76.80;;;;;;5067712;28;20080;-77
2023/09/08 05:30:08;;;;;;;1.10;0.90;;;18.60;99.90;;;;;;5067156;28;20044;-76
2023/09/08 05:32:35;;;;;;;1.05;0.93;;;18.60;99.90;;;;;;5080143;28;20652;-76
2023/09/08 05:35:02;;;;;;;1.30;0.90;;;18.70;99.90;;;;;;5082195;28;20095;-75
2023/09/08 05:37:29;;;;;;;1.10;0.90;;;18.70;99.90;;;;;;5087060;28;20441;-76
2023/09/08 05:39:56;;;;;;;0.95;0.85;;;18.70;99.90;;;;;;5081853;28;20532;-74
2023/09/08 05:42:23;;;;;;;1.17;1.05;;;18.70;99.90;;;;;;5084132;28;20139;-77
2023/09/08 05:44:50;;;;;;;1.15;0.90;;;18.80;99.90;;;;;;5085358;28;20196;-76
2023/09/08 05:47:17;;;;;;;1.85;1.23;;;18.80;99.90;;;;;;5075352;28;20040;-76
2023/09/08 05:49:44;;;;;;;1.10;1.00;;;18.90;99.90;;;;;;5085953;28;20062;-77
2023/09/08 05:52:10;;;;;;;1.27;1.08;;;18.90;99.90;;;;;;5082461;28;20048;-76
2023/09/08 05:54:37;;;;;;;1.25;0.88;;;18.90;99.90;;;;;;5084401;28;20048;-77
2023/09/08 05:57:06;;;;;;;0.70;0.70;;;18.90;99.90;;;;;;5049476;28;20044;-76
2023/09/08 05:59:32;;;;;;;0.90;0.70;;;19.00;99.90;;;;;;5082067;28;20100;-76
2023/09/08 06:01:59;;;;;;;0.88;0.80;;;19.00;99.90;;;;;;5074759;28;20367;-77
2023/09/08 06:04:26;;;;;;;1.52;0.90;;;19.20;99.90;;;;;;5068427;28;20689;-76
2023/09/08 06:06:53;;;;;;;1.00;0.70;;;19.20;99.90;;;;;;5082884;28;20048;-77
2023/09/08 06:09:20;;;;;;;1.25;0.95;;;19.30;99.90;;;;;;5070562;28;20083;-77
2023/09/08 06:11:47;;;;;;;1.77;1.40;;;19.40;99.20;;;;;;5076382;28;20430;-77
2023/09/08 06:14:14;;;;;;;1.58;1.48;;;19.40;95.40;;;;;;5093905;28;20551;-77
2023/09/08 06:16:41;;;;;;;2.00;1.20;;;19.50;90.00;;;;;;5080105;28;20181;-77
2023/09/08 06:19:08;;;;;;;1.80;1.40;;;19.60;61.20;;;;;;5056684;28;20627;-76
2023/09/08 06:21:35;;;;;;;1.85;1.42;;;19.70;30.40;;;;;;5083533;28;20230;-77
2023/09/08 06:24:02;;;;;;;1.75;1.13;;;19.80;12.80;;;;;;5059045;28;20455;-76
2023/09/08 06:26:29;;;;;;;1.38;1.10;;;19.80;1.00;;;;;;5082311;28;20135;-76
2023/09/08 06:28:55;;;;;;;1.40;1.00;;;19.90;1.00;;;;;;5079058;28;20054;-76
2023/09/08 06:31:23;;;;;;;0.93;0.57;;;20.00;1.00;;;;;;5061883;28;20044;-76
2023/09/08 06:33:51;;;;;;;0.85;0.77;;;20.10;1.00;;;;;;5078098;28;20531;-76
2023/09/08 06:36:19;;;;;;;1.10;0.82;;;20.20;99.90;;;;;;5067921;28;20068;-76
2023/09/08 06:38:46;;;;;;;1.17;0.90;;;20.20;99.90;;;;;;5077912;28;20551;-77
2023/09/08 06:41:13;;;;;;;0.82;0.73;;;20.30;99.90;;;;;;5085876;28;20513;-76
2023/09/08 06:43:39;;;;;;;1.45;1.08;;;20.30;99.90;;;;;;5046562;28;20071;-76
2023/09/08 06:46:06;;;;;;;1.10;0.70;;;20.40;99.90;;;;;;5085101;28;20048;-77
2023/09/08 06:48:33;;;;;;;1.20;0.98;;;20.40;99.90;;;;;;5068122;28;20128;-76
2023/09/08 06:51:01;;;;;;;0.77;0.75;;;20.50;99.90;;;;;;5085201;28;20094;-76
2023/09/08 06:53:28;;;;;;;1.00;0.80;;;20.60;99.90;;;;;;5083467;28;20050;-76
2023/09/08 06:55:54;;;;;;;0.70;0.57;;;20.70;50.50;;;;;;5083196;28;20492;-76
2023/09/08 06:58:21;;;;;;;0.80;0.77;;;20.80;99.90;;;;;;5084183;28;20624;-75
2023/09/08 07:00:49;;;;;;;0.85;0.68;;;21.00;99.90;;;;;;5077160;28;20051;-76
2023/09/08 07:03:17;;;;;;;0.85;0.50;;;21.10;42.50;;;;;;5066222;28;20051;-76
2023/09/08 07:05:44;;;;;;;0.70;0.57;;;21.30;99.90;;;;;;5080195;28;20495;-76
2023/09/08 07:08:10;;;;;;;0.40;0.40;;;21.40;99.90;;;;;;5063682;28;20044;-77
2023/09/08 07:10:38;;;;;;;0.60;0.60;;;21.50;99.90;;;;;;5067907;28;20051;-77
2023/09/08 07:13:05;;;;;;;0.82;0.70;;;21.60;99.90;;;;;;5084318;28;20570;-77
2023/09/08 07:15:35;;;;;;;0.80;0.60;;;21.70;1.00;;;;;;5067939;28;20381;-76
2023/09/08 07:18:02;;;;;;;1.00;0.88;;;21.80;1.00;;;;;;5085312;28;20044;-76
2023/09/08 07:20:31;;;;;;;0.77;0.57;;;21.90;99.90;;;;;;5067555;28;20048;-77
2023/09/08 07:22:58;;;;;;;0.60;0.60;;;22.00;1.00;;;;;;5094275;28;20055;-77
2023/09/08 07:25:25;;;;;;;0.70;0.60;;;22.10;99.90;;;;;;5074218;28;20131;-76
2023/09/08 07:27:53;;;;;;;0.65;0.50;;;22.10;99.90;;;;;;5063945;28;20520;-77
2023/09/08 07:30:20;;;;;;;0.45;0.45;;;22.10;99.90;;;;;;5069517;28;20948;-77
2023/09/08 07:32:47;;;;;;;0.60;0.40;;;22.20;99.90;;;;;;5054099;28;20139;-76
2023/09/08 07:35:16;;;;;;;0.50;0.40;;;22.20;99.90;;;;;;5079616;28;20059;-77
2023/09/08 07:37:43;;;;;;;1.17;0.65;;;22.30;99.90;;;;;;5083241;28;20408;-76
2023/09/08 07:40:10;;;;;;;0.98;0.60;;;22.30;99.90;;;;;;5080475;28;20054;-77
2023/09/08 07:42:37;;;;;;;0.73;0.55;;;22.30;3.00;;;;;;5071629;28;20043;-75
2023/09/08 07:45:04;;;;;;;0.90;0.60;;;22.40;2.10;;;;;;5086375;28;20540;-76
2023/09/08 07:47:31;;;;;;;0.57;0.50;;;22.40;79.70;;;;;;5089402;28;20048;-76
2023/09/08 07:50:37;;;;;;;1.00;0.60;;;22.50;99.90;;;;;;5087572;28;20052;-77
2023/09/08 07:53:03;;;;;;;0.43;0.43;;;22.50;1.00;;;;;;5016593;28;20075;-75
2023/09/08 07:55:30;;;;;;;0.95;0.65;;;22.60;1.00;;;;;;5033048;28;20063;-76
2023/09/08 07:57:57;;;;;;;0.82;0.73;;;22.60;1.00;;;;;;5065358;28;20555;-77
2023/09/08 08:00:24;;;;;;;0.60;0.60;;;22.80;1.00;;;;;;5083958;28;20059;-76
2023/09/08 08:02:53;;;;;;;0.90;0.68;;;22.90;1.00;;;;;;5082952;28;20048;-77
2023/09/08 08:05:20;;;;;;;0.77;0.55;;;23.00;1.00;;;;;;5067091;28;20083;-75
2023/09/08 08:07:48;;;;;;;1.30;0.90;;;23.20;1.00;;;;;;5088678;28;20151;-76
2023/09/08 08:10:15;;;;;;;0.98;0.80;;;23.30;1.00;;;;;;5100473;28;20044;-76
2023/09/08 08:12:42;;;;;;;0.77;0.70;;;23.40;1.00;;;;;;5075345;28;20094;-76
2023/09/08 08:15:10;;;;;;;1.73;1.08;;;23.50;1.00;;;;;;5087463;28;20124;-76
2023/09/08 08:17:37;;;;;;;1.13;0.77;;;23.60;1.00;;;;;;5087502;28;20070;-76
2023/09/08 08:20:09;;;;;;;1.38;1.08;;;23.60;1.00;;;;;;5086475;28;20044;-76
2023/09/08 08:22:36;;;;;;;1.42;1.10;;;23.70;1.00;;;;;;5084371;28;20050;-76
2023/09/08 08:25:04;;;;;;;1.67;0.90;;;23.80;1.00;;;;;;5086467;28;20631;-76
2023/09/08 08:27:31;;;;;;;1.27;1.00;;;23.90;1.00;;;;;;5087347;28;20113;-76
2023/09/08 08:30:00;;;;;;;1.15;0.88;;;23.90;1.00;;;;;;5065597;28;20048;-76
2023/09/08 08:32:27;;;;;;;1.88;1.20;;;24.00;1.00;;;;;;5068445;28;20044;-77
2023/09/08 08:34:54;;;;;;;1.20;1.00;;;24.00;1.00;;;;;;5084990;28;20803;-76
2023/09/08 08:37:21;;;;;;;1.45;1.10;;;24.00;1.00;;;;;;5084747;28;20109;-76
2023/09/08 08:39:48;;;;;;;1.30;0.90;;;24.10;1.00;;;;;;5086805;28;20134;-76
2023/09/08 08:42:15;;;;;;;1.05;0.90;;;24.20;99.90;;;;;;5069636;28;20048;-76
2023/09/08 08:44:43;;;;;;;1.17;0.80;;;24.20;99.90;;;;;;5085732;28;20130;-76
2023/09/08 08:47:10;;;;;;;1.02;0.82;;;24.30;99.90;;;;;;5085180;28;20044;-76
2023/09/08 08:49:38;;;;;;;1.38;0.68;;;24.40;99.90;;;;;;5069752;28;20044;-77
2023/09/08 08:52:08;;;;;;;1.90;1.00;;;24.50;99.90;;;;;;5086057;28;20076;-77
2023/09/08 08:54:37;;;;;;;0.93;0.70;;;24.70;99.90;;;;;;5086034;28;20082;-77
2023/09/08 08:57:04;;;;;;;1.20;0.90;;;24.80;99.90;;;;;;5064118;28;20044;-77
2023/09/08 08:59:31;;;;;;;0.80;0.63;;;25.00;99.90;;;;;;5083602;28;20051;-77
2023/09/08 09:01:58;;;;;;;0.80;0.55;;;25.20;99.90;;;;;;5084866;28;20044;-77
2023/09/08 09:04:25;;;;;;;0.68;0.68;;;25.30;99.90;;;;;;5069302;28;20051;-77
2023/09/08 09:06:55;;;;;;;2.50;0.90;;;25.40;99.90;;;;;;5067163;28;20056;-76
2023/09/08 09:09:22;;;;;;;0.63;0.63;;;25.50;99.90;;;;;;5069015;28;20113;-77
2023/09/08 09:11:49;;;;;;;1.10;0.85;;;25.70;99.90;;;;;;5086098;28;20130;-77
2023/09/08 09:14:18;;;;;;;0.80;0.70;;;25.90;99.90;;;;;;5067465;28;20519;-77
2023/09/08 09:16:47;;;;;;;1.05;0.82;;;26.10;99.90;;;;;;5084866;28;20044;-77
2023/09/08 09:19:31;;;;;;;0.57;0.57;;;26.30;99.90;;;;;;5083309;28;20520;-76
2023/09/08 09:21:58;;;;;;;1.10;1.00;;;26.50;99.90;;;;;;5094374;28;20051;-77
2023/09/08 09:24:43;;;;;;;0.80;0.70;;;26.60;99.90;;;;;;5069641;28;20560;-77
2023/09/08 09:27:10;;;;;;;0.85;0.73;;;26.80;99.90;;;;;;5083178;28;20079;-76
2023/09/08 09:29:48;;;;;;;1.23;0.88;;;26.90;99.90;;;;;;5082492;28;20075;-77
2023/09/08 09:32:15;;;;;;;1.40;0.70;;;26.90;99.90;;;;;;5085273;28;20795;-77
2023/09/08 09:34:50;;;;;;;0.73;0.73;;;27.10;99.90;;;;;;5069547;28;20440;-78
2023/09/08 09:37:17;;;;;;;0.82;0.70;;;27.20;99.90;;;;;;5092587;28;20051;-78
2023/09/08 09:39:49;;;;;;;0.70;0.70;;;27.30;99.90;;;;;;5079234;28;20058;-77
2023/09/08 09:42:15;;;;;;;1.95;0.90;;;27.50;99.90;;;;;;5085311;28;20108;-78
2023/09/08 09:44:42;;;;;;;0.95;0.82;;;27.70;99.90;;;;;;5084155;28;20052;-78
2023/09/08 09:47:09;;;;;;;0.73;0.63;;;27.70;99.90;;;;;;5085380;28;20080;-78
2023/09/08 09:49:43;;;;;;;1.67;1.10;;;27.90;99.90;;;;;;5085406;28;20189;-77
2023/09/08 09:52:14;;;;;;;1.80;1.20;;;28.00;99.90;;;;;;5085716;28;20098;-77
2023/09/08 09:54:41;;;;;;;1.13;0.90;;;28.00;99.90;;;;;;5087132;28;20060;-78
2023/09/08 09:57:14;;;;;;;1.25;1.02;;;28.20;99.90;;;;;;5085186;28;20044;-77
2023/09/08 09:59:41;;;;;;;1.30;0.90;;;28.30;99.90;;;;;;5083965;28;20490;-78
2023/09/08 10:02:11;;;;;;;1.00;0.80;;;28.40;99.90;;;;;;5065730;28;20066;-78
2023/09/08 10:04:41;;;;;;;0.65;0.60;;;28.50;99.90;;;;;;5064898;28;20044;-78
2023/09/08 10:07:09;;;;;;;1.02;0.80;;;28.70;99.90;;;;;;5084029;28;20051;-79
2023/09/08 10:09:36;;;;;;;1.13;0.90;;;28.70;99.90;;;;;;5085078;28;20051;-78
2023/09/08 10:12:06;;;;;;;1.10;0.80;;;28.70;99.90;;;;;;5086744;28;20056;-78
2023/09/08 10:14:35;;;;;;;1.20;1.00;;;28.60;99.90;;;;;;5065603;28;20325;-78
2023/09/08 10:17:02;;;;;;;0.95;0.85;;;28.50;99.90;;;;;;5082242;28;20052;-79
2023/09/08 10:19:30;;;;;;;2.58;0.95;;;28.40;99.90;;;;;;5078565;28;20122;-78
2023/09/08 10:22:00;;;;;;;1.65;1.20;;;28.20;99.90;;;;;;5064648;28;20052;-78
2023/09/08 10:24:28;;;;;;;1.65;1.08;;;28.10;99.90;;;;;;5081322;28;20104;-78
2023/09/08 10:27:08;;;;;;;1.25;0.90;;;28.10;99.90;;;;;;5083163;28;21010;-78
2023/09/08 10:29:35;;;;;;;1.00;0.90;;;28.10;99.90;;;;;;5069772;28;20044;-78
2023/09/08 10:32:03;;;;;;;1.08;0.80;;;28.10;99.90;;;;;;5064347;28;20044;-78
2023/09/08 10:34:30;;;;;;;1.83;0.93;;;28.20;99.90;;;;;;5037677;28;20218;-79
2023/09/08 10:36:57;;;;;;;0.90;0.85;;;28.20;99.90;;;;;;5067405;28;20074;-78
2023/09/08 10:39:35;;;;;;;0.88;0.75;;;28.30;99.90;;;;;;5085865;28;20056;-77
2023/09/08 10:42:19;;;;;;;1.05;0.85;;;28.30;99.90;;;;;;5087855;28;20043;-77
2023/09/08 10:44:49;;;;;;;1.25;1.15;;;28.40;99.90;;;;;;5081625;28;20079;-77
2023/09/08 10:47:23;;;;;;;1.42;1.13;;;28.50;99.90;;;;;;5081076;28;20040;-77
2023/09/08 10:49:53;;;;;;;1.42;1.05;;;28.60;99.90;;;;;;5081181;28;20055;-77
2023/09/08 10:52:23;;;;;;;1.67;1.27;;;28.60;99.90;;;;;;5052449;28;20036;-77
2023/09/08 10:54:52;;;;;;;1.02;0.82;;;28.60;99.90;;;;;;5084258;28;20052;-76
2023/09/08 10:57:20;;;;;;;0.70;0.70;;;28.70;99.90;;;;;;5051220;28;20048;-77
2023/09/08 10:59:57;;;;;;;1.23;0.95;;;28.80;99.90;;;;;;5063772;28;20043;-77
2023/09/08 11:02:50;;;;;;;1.13;1.02;;;28.90;99.90;;;;;;5075611;28;20044;-77
2023/09/08 11:05:19;;;;;;;1.67;1.17;;;29.10;99.90;;;;;;5076505;28;20098;-77
2023/09/08 11:07:49;;;;;;;1.25;0.85;;;29.20;99.90;;;;;;5078368;28;20617;-77
2023/09/08 11:10:16;;;;;;;1.20;0.93;;;29.30;99.90;;;;;;5064278;28;20044;-77
2023/09/08 11:12:43;;;;;;;1.10;0.90;;;29.30;99.90;;;;;;5081867;28;20177;-78
2023/09/08 11:15:10;;;;;;;1.63;1.08;;;29.30;99.90;;;;;;5083900;28;20161;-78
2023/09/08 11:17:39;;;;;;;1.33;0.95;;;29.30;99.90;;;;;;5071210;28;20059;-77
2023/09/08 11:20:08;;;;;;;1.20;1.00;;;29.30;99.90;;;;;;5088223;28;20040;-77
2023/09/08 11:22:37;;;;;;;1.15;0.77;;;29.30;99.90;;;;;;5084818;28;20048;-79
2023/09/08 11:25:04;;;;;;;1.15;0.98;;;29.40;99.90;;;;;;5083893;28;20509;-78
2023/09/08 11:27:31;;;;;;;1.08;0.98;;;29.40;99.90;;;;;;5067611;28;20472;-79
2023/09/08 11:29:58;;;;;;;0.80;0.80;;;29.60;99.90;;;;;;5086152;28;20052;-78
2023/09/08 11:32:25;;;;;;;1.08;0.90;;;29.70;99.90;;;;;;5086731;28;20070;-79
2023/09/08 11:34:52;;;;;;;1.30;1.00;;;29.80;99.90;;;;;;5086333;28;20094;-77
2023/09/08 11:37:19;;;;;;;1.10;0.90;;;29.90;99.90;;;;;;5088095;28;20048;-78
2023/09/08 11:39:46;;;;;;;1.13;0.90;;;29.90;99.90;;;;;;5066949;28;20048;-78
2023/09/08 11:42:14;;;;;;;1.33;0.90;;;30.00;99.90;;;;;;5067606;28;20052;-79
2023/09/08 11:44:41;;;;;;;1.15;1.05;;;30.10;99.90;;;;;;5084766;28;20063;-77
2023/09/08 11:47:09;;;;;;;1.15;1.05;;;30.30;99.90;;;;;;5083865;28;20700;-79
2023/09/08 11:49:36;;;;;;;1.13;0.80;;;30.40;99.90;;;;;;5077777;28;20040;-78
2023/09/08 11:52:04;;;;;;;1.10;1.00;;;30.40;99.90;;;;;;5083972;28;20101;-79
2023/09/08 11:54:34;;;;;;;1.00;0.90;;;30.50;99.90;;;;;;5087517;28;20127;-78
2023/09/08 11:57:03;;;;;;;1.33;1.00;;;30.60;99.90;;;;;;5086762;28;20058;-78
2023/09/08 11:59:31;;;;;;;1.00;0.90;;;30.80;99.90;;;;;;5070705;28;20412;-78
2023/09/08 12:01:58;;;;;;;1.42;1.00;;;31.00;99.90;;;;;;5085427;28;20460;-78
2023/09/08 12:04:25;;;;;;;1.23;1.10;;;31.30;99.90;;;;;;5065284;28;20051;-78
2023/09/08 12:06:53;;;;;;;1.00;0.90;;;31.40;99.90;;;;;;5049309;28;20181;-78
2023/09/08 12:09:20;;;;;;;1.60;1.25;;;31.60;99.90;;;;;;5086520;28;20048;-78
2023/09/08 12:11:47;;;;;;;1.50;1.05;;;31.70;99.90;;;;;;5086625;28;20075;-78
2023/09/08 12:14:14;;;;;;;2.10;1.08;;;31.80;99.90;;;;;;5082546;28;20119;-79
2023/09/08 12:16:41;;;;;;;1.00;0.90;;;31.90;99.90;;;;;;5084045;28;20052;-79
2023/09/08 12:19:27;;;;;;;2.13;0.82;;;32.10;99.90;;;;;;5082291;28;20052;-79
2023/09/08 12:21:55;;;;;;;1.00;0.90;;;32.10;99.90;;;;;;5086078;28;20101;-78
2023/09/08 12:24:51;;;;;;;1.55;1.20;;;32.30;99.90;;;;;;5065736;28;20054;-79
2023/09/08 12:27:18;;;;;;;1.05;0.93;;;32.50;99.90;;;;;;5082624;28;20432;-78
2023/09/08 12:30:00;;;;;;;0.90;0.85;;;32.80;99.90;;;;;;5052196;28;20392;-78
2023/09/08 12:32:31;;;;;;;1.30;1.17;;;33.10;99.90;;;;;;5080857;28;20063;-78
2023/09/08 12:35:01;;;;;;;1.27;1.02;;;33.10;99.90;;;;;;5083946;28;20043;-79
2023/09/08 12:37:28;;;;;;;1.20;1.10;;;33.30;99.90;;;;;;5083599;28;20101;-78
2023/09/08 12:39:56;;;;;;;1.00;0.90;;;33.50;99.90;;;;;;5082033;28;20071;-78
2023/09/08 12:42:28;;;;;;;2.78;1.25;;;33.80;99.90;;;;;;5078114;28;20075;-78
2023/09/08 12:44:55;;;;;;;1.10;1.00;;;34.10;99.90;;;;;;5076613;28;20036;-78
2023/09/08 12:47:22;;;;;;;1.15;1.05;;;34.30;99.90;;;;;;5077663;28;20044;-78
2023/09/08 12:49:49;;;;;;;1.40;1.30;;;34.40;99.90;;;;;;5080204;28;20052;-78
2023/09/08 12:52:16;;;;;;;1.60;1.13;;;34.50;99.90;;;;;;5068504;28;20137;-78
2023/09/08 12:54:43;;;;;;;1.23;0.85;;;34.30;99.90;;;;;;5072696;28;20063;-78